createdAt,value
2019-05-13T00:42:09.773Z,6.67
2019-05-13T00:44:39.204Z,2.30
2019-05-13T00:47:08.608Z,1.83
2019-05-13T00:49:37.745Z,4.73
2019-05-13T00:52:06.863Z,4.83
2019-05-13T00:54:35.998Z,2.50
2019-05-13T00:57:05.132Z,2.60
2019-05-13T00:59:34.312Z,2.00
2019-05-13T01:02:04.347Z,2.83
2019-05-13T01:04:33.993Z,2.83
2019-05-13T01:07:04.410Z,4.57
2019-05-13T01:09:34.268Z,2.73
2019-05-13T01:12:04.391Z,3.63
2019-05-13T01:14:34.306Z,1.83
2019-05-13T01:17:04.640Z,2.60
2019-05-13T01:19:34.849Z,3.60
2019-05-13T01:22:03.965Z,2.00
2019-05-13T01:24:33.898Z,5.07
2019-05-13T01:27:04.127Z,2.97
2019-05-13T01:29:34.423Z,3.57
2019-05-13T01:32:04.500Z,2.63
2019-05-13T01:34:34.101Z,3.13
2019-05-13T01:37:04.197Z,3.37
2019-05-13T01:39:34.977Z,3.73
2019-05-13T01:42:04.689Z,3.03
2019-05-13T01:44:33.874Z,3.50
2019-05-13T01:47:04.558Z,5.57
2019-05-13T01:49:33.964Z,5.87
2019-05-13T01:52:03.932Z,2.10
2019-05-13T01:54:33.833Z,2.87
2019-05-13T01:57:04.442Z,1.97
2019-05-13T01:59:34.592Z,2.67
2019-05-13T02:02:05.582Z,2.00
2019-05-13T02:04:34.701Z,3.20
2019-05-13T02:07:04.291Z,5.17
2019-05-13T02:09:34.105Z,2.43
2019-05-13T02:12:04.827Z,3.10
2019-05-13T02:14:34.299Z,2.27
2019-05-13T02:17:04.464Z,4.97
2019-05-13T02:19:33.818Z,3.37
2019-05-13T02:22:04.680Z,3.70
2019-05-13T02:24:34.354Z,4.47
2019-05-13T02:27:04.920Z,2.97
2019-05-13T02:29:34.610Z,5.00
2019-05-13T02:32:04.874Z,2.63
2019-05-13T02:34:34.381Z,3.63
2019-05-13T02:37:03.815Z,3.80
2019-05-13T02:39:33.183Z,3.87
2019-05-13T02:42:03.468Z,1.53
2019-05-13T02:44:33.629Z,3.57
2019-05-13T02:47:04.210Z,3.23
2019-05-13T02:49:33.466Z,3.03
2019-05-13T02:52:03.750Z,2.73
2019-05-13T02:54:34.160Z,2.87
2019-05-13T02:57:04.569Z,3.13
2019-05-13T02:59:34.056Z,4.60
2019-05-13T03:02:05.095Z,4.73
2019-05-13T03:04:34.602Z,2.20
2019-05-13T03:07:04.625Z,4.70
2019-05-13T03:09:33.756Z,4.13
2019-05-13T03:12:05.189Z,3.00
2019-05-13T03:14:34.305Z,5.13
2019-05-13T03:17:13.112Z,3.90
2019-05-13T03:19:43.491Z,3.77
2019-05-13T03:22:13.595Z,5.70
2019-05-13T03:24:43.206Z,3.57
2019-05-13T03:27:13.101Z,5.10
2019-05-13T03:29:43.454Z,5.53
2019-05-13T03:32:16.066Z,5.70
2019-05-13T03:34:45.537Z,9.53
2019-05-13T03:37:15.916Z,5.93
2019-05-13T03:39:45.163Z,4.27
2019-05-13T03:42:14.304Z,3.13
2019-05-13T03:44:44.458Z,3.43
2019-05-13T03:47:14.358Z,4.03
2019-05-13T03:49:44.503Z,4.73
2019-05-13T03:52:13.780Z,6.60
2019-05-13T03:54:43.721Z,3.53
2019-05-13T03:57:13.063Z,4.90
2019-05-13T03:59:43.612Z,5.67
2019-05-13T04:02:14.111Z,3.87
2019-05-13T04:04:43.282Z,4.63
2019-05-13T04:07:13.389Z,2.97
2019-05-13T04:09:42.824Z,3.80
2019-05-13T04:12:13.553Z,4.97
2019-05-13T04:14:43.383Z,6.10
2019-05-13T04:17:12.873Z,4.07
2019-05-13T04:19:42.429Z,3.43
2019-05-13T04:22:12.918Z,6.57
2019-05-13T04:24:42.792Z,5.60
2019-05-13T04:27:13.406Z,3.90
2019-05-13T04:29:43.334Z,3.93
2019-05-13T04:32:13.704Z,7.23
2019-05-13T04:34:42.982Z,5.63
2019-05-13T04:37:13.239Z,4.57
2019-05-13T04:39:51.166Z,5.73
2019-05-13T04:42:13.560Z,4.63
2019-05-13T04:44:43.028Z,5.07
2019-05-13T04:47:12.760Z,4.50
2019-05-13T04:49:42.801Z,4.17
2019-05-13T04:52:13.414Z,4.93
2019-05-13T04:54:43.669Z,5.27
2019-05-13T04:57:13.157Z,6.53
2019-05-13T04:59:44.448Z,6.77
2019-05-13T05:02:22.682Z,4.73
2019-05-13T05:05:05.341Z,7.23
2019-05-13T05:07:37.776Z,6.83
2019-05-13T05:10:38.327Z,9.47
2019-05-13T05:13:22.337Z,9.10
2019-05-13T05:16:02.657Z,5.77
2019-05-13T05:19:05.502Z,8.87
2019-05-13T05:21:56.279Z,14.93
2019-05-13T05:24:41.331Z,7.83
2019-05-13T05:27:36.346Z,10.40
2019-05-13T05:30:21.828Z,6.50
2019-05-13T05:33:11.220Z,6.70
2019-05-13T05:35:52.170Z,8.87
2019-05-13T05:38:26.135Z,9.90
2019-05-13T05:40:56.948Z,12.53
2019-05-13T05:43:26.866Z,9.03
2019-05-13T05:45:55.993Z,12.57
2019-05-13T05:48:25.198Z,10.57
2019-05-13T05:50:54.512Z,13.43
2019-05-13T05:53:24.192Z,9.47
2019-05-13T05:55:54.876Z,9.73
2019-05-13T05:58:24.204Z,9.23
2019-05-13T06:00:55.024Z,9.10
2019-05-13T06:03:24.649Z,8.07
2019-05-13T06:05:54.244Z,11.53
2019-05-13T06:08:23.381Z,14.93
2019-05-13T06:10:53.853Z,12.80
2019-05-13T06:13:23.244Z,12.27
2019-05-13T06:15:52.369Z,12.53
2019-05-13T06:18:22.248Z,10.93
2019-05-13T06:20:52.756Z,9.10
2019-05-13T06:23:22.289Z,10.07
2019-05-13T06:25:52.612Z,12.47
2019-05-13T06:28:23.113Z,12.40
2019-05-13T06:30:52.608Z,14.40
2019-05-13T06:33:21.808Z,13.40
2019-05-13T06:35:52.125Z,12.27
2019-05-13T06:38:22.494Z,11.80
2019-05-13T06:41:00.395Z,14.73
2019-05-13T06:43:22.932Z,9.73
2019-05-13T06:45:52.068Z,12.23
2019-05-13T06:48:23.103Z,9.77
2019-05-13T06:50:52.238Z,13.37
2019-05-13T06:53:21.878Z,8.90
2019-05-13T06:55:52.322Z,8.17
2019-05-13T06:58:22.362Z,11.83
2019-05-13T07:00:51.794Z,12.63
2019-05-13T07:03:21.949Z,10.23
2019-05-13T07:05:52.633Z,9.23
2019-05-13T07:08:22.251Z,12.40
2019-05-13T07:10:51.871Z,9.93
2019-05-13T07:13:21.805Z,11.90
2019-05-13T07:15:52.278Z,9.60
2019-05-13T07:18:21.984Z,7.80
2019-05-13T07:20:53.013Z,9.77
2019-05-13T07:23:22.499Z,9.27
2019-05-13T07:25:52.441Z,10.33
2019-05-13T07:28:23.480Z,9.83
2019-05-13T07:30:52.621Z,6.67
2019-05-13T07:33:21.819Z,12.07
2019-05-13T07:35:56.818Z,7.43
2019-05-13T07:38:22.475Z,7.97
2019-05-13T07:40:54.882Z,7.90
2019-05-13T07:43:24.972Z,7.53
2019-05-13T07:45:54.110Z,10.80
2019-05-13T07:48:27.528Z,11.13
2019-05-13T07:51:00.239Z,8.90
2019-05-13T07:53:25.492Z,7.80
2019-05-13T07:55:54.635Z,9.50
2019-05-13T07:58:23.829Z,8.63
2019-05-13T08:00:53.089Z,12.90
2019-05-13T08:03:22.229Z,7.87
2019-05-13T08:05:51.434Z,6.53
2019-05-13T08:08:22.139Z,7.70
2019-05-13T08:10:51.979Z,9.90
2019-05-13T08:13:22.485Z,8.87
2019-05-13T08:15:54.686Z,11.73
2019-05-13T08:18:23.725Z,9.47
2019-05-13T08:20:52.871Z,9.43
2019-05-13T08:23:22.002Z,11.87
2019-05-13T08:25:51.504Z,7.57
2019-05-13T08:28:22.596Z,7.83
2019-05-13T08:30:52.105Z,8.37
2019-05-13T08:33:22.673Z,7.13
2019-05-13T08:35:54.125Z,7.97
2019-05-13T08:38:23.131Z,5.77
2019-05-13T08:40:52.400Z,7.70
2019-05-13T08:43:22.597Z,5.23
2019-05-13T08:45:55.488Z,6.23
2019-05-13T08:48:23.305Z,10.27
2019-05-13T08:50:52.426Z,8.40
2019-05-13T08:53:21.553Z,5.60
2019-05-13T08:55:51.718Z,6.53
2019-05-13T08:58:21.727Z,5.87
2019-05-13T09:00:53.728Z,5.70
2019-05-13T09:03:22.937Z,7.70
2019-05-13T09:05:52.457Z,6.30
2019-05-13T09:08:22.479Z,7.72
2019-05-13T09:10:52.468Z,4.90
2019-05-13T09:13:22.804Z,6.27
2019-05-13T09:15:51.945Z,6.37
2019-05-13T09:18:22.770Z,6.60
2019-05-13T09:20:52.200Z,6.10
2019-05-13T09:23:22.318Z,5.80
2019-05-13T09:25:52.344Z,5.93
2019-05-13T09:28:22.082Z,8.13
2019-05-13T09:30:53.168Z,7.37
2019-05-13T09:33:22.183Z,4.33
2019-05-13T09:35:53.623Z,6.83
2019-05-13T09:38:22.419Z,5.57
2019-05-13T09:40:53.038Z,6.97
2019-05-13T09:43:22.633Z,6.33
2019-05-13T09:45:52.469Z,5.97
2019-05-13T09:48:22.629Z,8.93
2019-05-13T09:50:53.145Z,5.57
2019-05-13T09:53:22.691Z,6.63
2019-05-13T09:55:52.931Z,4.13
2019-05-13T09:58:22.621Z,7.77
2019-05-13T10:00:53.344Z,4.63
2019-05-13T10:03:28.759Z,9.53
2019-05-13T10:05:53.506Z,7.87
2019-05-13T10:08:22.670Z,5.43
2019-05-13T10:10:52.747Z,10.77
2019-05-13T10:13:23.086Z,4.97
2019-05-13T10:15:53.174Z,4.80
2019-05-13T10:18:22.440Z,5.27
2019-05-13T10:20:58.957Z,5.50
2019-05-13T10:23:28.699Z,4.83
2019-05-13T10:26:03.260Z,6.80
2019-05-13T10:28:33.161Z,5.70
2019-05-13T10:31:02.727Z,6.22
2019-05-13T10:33:32.364Z,5.60
2019-05-13T10:36:03.516Z,3.90
2019-05-13T10:38:32.954Z,5.17
2019-05-13T10:41:03.405Z,3.53
2019-05-13T10:43:33.062Z,4.57
2019-05-13T10:46:03.432Z,5.53
2019-05-13T10:48:32.632Z,4.43
2019-05-13T10:51:02.718Z,4.27
2019-05-13T10:53:32.292Z,5.77
2019-05-13T10:56:03.503Z,5.35
2019-05-13T10:58:32.857Z,4.58
2019-05-13T11:01:03.788Z,6.57
2019-05-13T11:03:33.288Z,2.73
2019-05-13T11:06:03.176Z,3.13
2019-05-13T11:08:33.354Z,3.03
2019-05-13T11:11:03.880Z,2.37
2019-05-13T11:13:50.812Z,2.13
2019-05-13T11:16:03.944Z,2.70
2019-05-13T11:18:33.158Z,3.10
2019-05-13T11:21:02.474Z,2.33
2019-05-13T11:23:32.414Z,4.83
2019-05-13T11:26:03.395Z,2.97
2019-05-13T11:28:33.088Z,2.57
2019-05-13T11:31:03.518Z,5.20
2019-05-13T11:33:32.941Z,5.13
2019-05-13T11:36:03.238Z,2.70
2019-05-13T11:38:33.022Z,2.37
2019-05-13T11:41:02.860Z,1.70
2019-05-13T11:43:33.127Z,3.37
2019-05-13T11:46:02.948Z,3.87
2019-05-13T11:48:32.662Z,3.37
2019-05-13T11:51:03.832Z,4.70
2019-05-13T11:53:36.541Z,2.87
2019-05-13T11:56:04.321Z,4.00
2019-05-13T11:58:33.490Z,3.03
2019-05-13T12:01:04.254Z,2.53
2019-05-13T12:03:33.385Z,1.90
2019-05-13T12:06:02.821Z,3.30
2019-05-13T12:08:33.775Z,1.67
2019-05-13T12:11:05.098Z,3.43
2019-05-13T12:13:36.009Z,4.37
2019-05-13T12:16:05.201Z,2.73
2019-05-13T12:18:34.339Z,2.23
2019-05-13T12:21:04.310Z,4.07
2019-05-13T12:23:33.687Z,4.07
2019-05-13T12:26:04.937Z,3.83
2019-05-13T12:28:34.376Z,2.20
2019-05-13T12:31:03.631Z,4.43
2019-05-13T12:33:33.009Z,2.43
2019-05-13T12:36:02.379Z,3.33
2019-05-13T12:38:33.066Z,4.13
2019-05-13T12:41:04.995Z,3.87
2019-05-13T12:43:33.306Z,3.30
2019-05-13T12:46:02.666Z,2.87
2019-05-13T12:48:31.999Z,3.93
2019-05-13T12:51:03.066Z,4.20
2019-05-13T12:53:32.347Z,3.53
2019-05-13T12:56:03.730Z,4.73
2019-05-13T12:58:34.263Z,2.63
2019-05-13T13:01:03.670Z,2.27
2019-05-13T13:03:32.805Z,2.27
2019-05-13T13:06:25.124Z,3.80
2019-05-13T13:08:43.516Z,3.60
2019-05-13T13:11:04.700Z,3.57
2019-05-13T13:13:56.926Z,5.63
2019-05-13T13:16:04.797Z,2.10
2019-05-13T13:18:34.017Z,3.13
2019-05-13T13:21:07.411Z,1.57
2019-05-13T13:23:34.348Z,1.80
2019-05-13T13:26:03.834Z,2.47
2019-05-13T13:31:04.545Z,3.00
2019-05-13T13:33:34.481Z,3.77
2019-05-13T13:36:05.893Z,3.50
2019-05-13T13:38:35.331Z,5.10
2019-05-13T13:41:04.546Z,2.83
2019-05-13T13:43:36.997Z,2.47
2019-05-13T13:46:17.148Z,3.50
2019-05-13T13:48:36.727Z,3.37
2019-05-13T13:51:05.963Z,2.90
2019-05-13T13:53:35.362Z,2.43
2019-05-13T13:56:04.489Z,4.30
2019-05-13T13:58:33.965Z,3.13
2019-05-13T14:01:11.893Z,4.10
2019-05-13T14:03:34.800Z,3.63
2019-05-13T14:06:06.064Z,4.87
2019-05-13T14:07:08.797Z,2.73
2019-05-13T14:08:35.099Z,3.23
2019-05-13T14:11:04.242Z,4.70
2019-05-13T14:13:33.430Z,2.87
2019-05-13T14:16:03.426Z,3.73
2019-05-13T14:18:32.886Z,2.80
2019-05-13T14:21:03.594Z,4.33
2019-05-13T14:23:32.777Z,3.93
2019-05-13T14:26:02.985Z,2.90
2019-05-13T14:28:32.726Z,6.40
2019-05-13T14:31:03.360Z,2.70
2019-05-13T14:33:35.206Z,4.03
2019-05-13T14:36:03.701Z,2.03
2019-05-13T14:38:33.140Z,2.70
2019-05-13T14:41:03.496Z,4.60
2019-05-13T14:43:33.964Z,2.53
2019-05-13T14:46:03.276Z,2.93
2019-05-13T14:48:33.134Z,2.37
2019-05-13T14:51:02.520Z,3.10
2019-05-13T14:53:32.521Z,4.00
2019-05-13T14:56:03.237Z,3.47
2019-05-13T14:58:32.969Z,2.83
2019-05-13T15:01:15.757Z,2.73
2019-05-13T15:03:33.560Z,3.13
2019-05-13T15:06:04.546Z,4.30
2019-05-13T15:08:33.688Z,2.70
2019-05-13T15:11:04.474Z,2.67
2019-05-13T15:13:33.615Z,4.10
2019-05-13T15:16:02.742Z,4.20
2019-05-13T15:18:33.058Z,3.27
2019-05-13T15:21:03.399Z,4.08
2019-05-13T15:23:32.588Z,3.20
2019-05-13T15:26:03.178Z,2.77
2019-05-13T15:28:32.308Z,4.07
2019-05-13T15:31:01.786Z,4.10
2019-05-13T15:33:32.680Z,3.53
2019-05-13T15:36:02.402Z,5.73
2019-05-13T15:38:32.187Z,2.90
2019-05-13T15:41:02.025Z,4.20
2019-05-13T15:43:32.105Z,3.33
2019-05-13T15:46:03.778Z,2.03
2019-05-13T15:48:33.644Z,1.87
2019-05-13T15:51:04.176Z,2.27
2019-05-13T15:53:33.317Z,2.03
2019-05-13T15:56:03.440Z,1.73
2019-05-13T15:58:39.134Z,5.13
2019-05-13T16:01:03.749Z,3.47
2019-05-13T16:03:32.951Z,3.47
2019-05-13T16:06:03.257Z,1.20
2019-05-13T16:08:32.768Z,5.27
2019-05-13T16:11:03.432Z,3.30
2019-05-13T16:13:32.558Z,4.40
2019-05-13T16:16:01.982Z,4.03
2019-05-13T16:18:31.840Z,4.00
2019-05-13T16:21:01.877Z,2.57
2019-05-13T16:23:32.326Z,2.13
2019-05-13T16:26:02.744Z,4.47
2019-05-13T16:28:33.010Z,2.23
2019-05-13T16:31:02.933Z,2.90
2019-05-13T16:33:33.042Z,1.60
2019-05-13T16:36:03.222Z,2.00
2019-05-13T16:38:33.333Z,2.13
2019-05-13T16:41:02.532Z,2.87
2019-05-13T16:43:32.181Z,2.77
2019-05-13T16:46:01.448Z,2.03
2019-05-13T16:48:32.377Z,3.67
2019-05-13T16:51:02.660Z,3.17
2019-05-13T16:53:31.891Z,5.07
2019-05-13T16:56:01.800Z,3.40
2019-05-13T16:58:32.494Z,2.00
2019-05-13T17:01:02.966Z,1.93
2019-05-13T17:03:33.116Z,3.30
2019-05-13T17:06:02.422Z,4.07
2019-05-13T17:08:32.900Z,3.57
2019-05-13T17:11:02.944Z,4.00
2019-05-13T17:13:32.095Z,4.10
2019-05-13T17:16:03.081Z,2.43
2019-05-13T17:18:32.690Z,5.10
2019-05-13T17:21:03.744Z,3.73
2019-05-13T17:23:32.889Z,4.60
2019-05-13T17:26:04.330Z,3.57
2019-05-13T17:28:34.485Z,4.73
2019-05-13T17:31:05.011Z,3.53
2019-05-13T17:33:34.128Z,3.00
2019-05-13T17:36:03.257Z,6.43
2019-05-13T17:38:32.637Z,3.33
2019-05-13T17:41:02.695Z,3.33
2019-05-13T17:43:32.272Z,2.40
2019-05-13T17:46:02.386Z,5.03
2019-05-13T17:48:33.071Z,1.77
2019-05-13T17:51:03.772Z,4.43
2019-05-13T17:53:33.880Z,3.77
2019-05-13T17:56:05.388Z,3.90
2019-05-13T17:58:34.516Z,7.53
2019-05-13T18:01:04.594Z,2.83
2019-05-13T18:03:34.021Z,4.10
2019-05-13T18:06:05.038Z,3.27
2019-05-13T18:08:34.176Z,3.53
2019-05-13T18:11:04.878Z,3.93
2019-05-13T18:13:34.005Z,9.67
2019-05-13T18:16:05.016Z,2.53
2019-05-13T18:18:42.983Z,3.90
2019-05-13T18:21:05.277Z,3.13
2019-05-13T18:23:34.416Z,5.07
2019-05-13T18:26:03.877Z,4.50
2019-05-13T18:28:33.008Z,4.70
2019-05-13T18:31:02.485Z,2.90
2019-05-13T18:33:32.099Z,3.43
2019-05-13T18:36:02.546Z,4.00
2019-05-13T18:38:31.693Z,2.80
2019-05-13T18:41:02.044Z,3.10
2019-05-13T18:43:32.317Z,4.93
2019-05-13T18:46:03.844Z,3.37
2019-05-13T18:48:32.988Z,7.27
2019-05-13T18:51:03.900Z,2.67
2019-05-13T18:53:33.029Z,3.97
2019-05-13T18:56:03.784Z,2.70
2019-05-13T18:58:32.908Z,2.13
2019-05-13T19:01:03.776Z,3.63
2019-05-13T19:03:32.905Z,2.17
2019-05-13T19:06:02.561Z,4.13
2019-05-13T19:08:32.241Z,5.87
2019-05-13T19:11:01.751Z,6.70
2019-05-13T19:13:32.480Z,5.27
2019-05-13T19:16:02.656Z,3.47
2019-05-13T19:18:32.198Z,2.93
2019-05-13T19:21:02.278Z,4.60
2019-05-13T19:23:31.624Z,3.33
2019-05-13T19:26:02.724Z,7.00
2019-05-13T19:28:32.019Z,2.57
2019-05-13T19:31:02.710Z,2.60
2019-05-13T19:33:31.852Z,6.07
2019-05-13T19:36:02.689Z,2.37
2019-05-13T19:38:32.105Z,5.10
2019-05-13T19:41:01.978Z,2.63
2019-05-13T19:43:31.640Z,4.57
2019-05-13T19:46:02.564Z,5.37
2019-05-13T19:48:32.759Z,3.93
2019-05-13T19:51:02.708Z,4.93
2019-05-13T19:53:32.132Z,5.27
2019-05-13T19:56:03.661Z,4.00
2019-05-13T19:58:32.796Z,6.17
2019-05-13T20:01:03.381Z,3.57
2019-05-13T20:03:32.521Z,2.70
2019-05-13T20:06:02.600Z,3.00
2019-05-13T20:08:32.793Z,5.53
2019-05-13T20:11:02.289Z,4.23
2019-05-13T20:13:31.445Z,5.30
2019-05-13T20:16:01.464Z,2.90
2019-05-13T20:18:32.062Z,4.37
2019-05-13T20:21:03.085Z,3.50
2019-05-13T20:23:32.280Z,4.07
2019-05-13T20:26:01.833Z,4.20
2019-05-13T20:28:31.789Z,2.40
2019-05-13T20:31:03.094Z,3.70
2019-05-13T20:33:34.297Z,2.77
2019-05-13T20:36:03.841Z,4.70
2019-05-13T20:38:32.977Z,4.13
2019-05-13T20:41:03.357Z,5.50
2019-05-13T20:43:32.947Z,3.87
2019-05-13T20:46:02.359Z,3.43
2019-05-13T20:48:32.157Z,3.50
2019-05-13T20:51:02.544Z,4.50
2019-05-13T20:53:31.944Z,2.00
2019-05-13T20:56:02.023Z,3.43
2019-05-13T20:58:31.830Z,4.23
2019-05-13T21:01:02.573Z,3.03
2019-05-13T21:03:31.877Z,4.97
2019-05-13T21:06:01.981Z,4.33
2019-05-13T21:08:32.113Z,5.20
2019-05-13T21:11:02.493Z,2.70
2019-05-13T21:13:32.052Z,3.40
2019-05-13T21:16:03.127Z,3.10
2019-05-13T21:18:32.504Z,3.80
2019-05-13T21:21:02.234Z,4.13
2019-05-13T21:23:31.482Z,3.83
2019-05-13T21:26:03.297Z,4.50
2019-05-13T21:28:32.423Z,3.43
2019-05-13T21:31:02.309Z,2.57
2019-05-13T21:33:31.633Z,3.20
2019-05-13T21:36:01.948Z,3.57
2019-05-13T21:38:32.406Z,2.30
2019-05-13T21:41:01.848Z,2.13
2019-05-13T21:43:32.351Z,2.70
2019-05-13T21:46:03.958Z,2.93
2019-05-13T21:48:33.158Z,2.20
2019-05-13T21:51:02.288Z,3.40
2019-05-13T21:53:32.579Z,3.63
2019-05-13T21:56:02.516Z,2.60
2019-05-13T21:58:31.826Z,3.63
2019-05-13T22:01:01.913Z,3.80
2019-05-13T22:03:33.293Z,2.57
2019-05-13T22:06:02.770Z,2.30
2019-05-13T22:08:32.292Z,3.97
2019-05-13T22:11:02.706Z,3.33
2019-05-13T22:13:31.848Z,2.37
